Overview Statistics Trail Chart Weather Telemetry Raw packets
 

This is the latest recevied weather packets stored in our database for station/object IT9DBI-3. If no packets are shown the sender has not sent any weather packets the latest 10 day(s).

<< 1 2 3 4 >>
Time Temp. Humidity Pressure Rain* Wind** Luminosity Snow
1788613049 38.33° C 35% 1017.5 hPa - - - -
1788611848 37.22° C 35% 1017.8 hPa - - - -
1788610647 36.67° C 33% 1017.9 hPa - - - -
1788609445 37.22° C 35% 1018 hPa - - - -
1788608244 36.11° C 37% 1018.2 hPa - - - -
1788607043 36.67° C 36% 1018.3 hPa - - - -
1788605841 36.11° C 37% 1018.3 hPa - - - -
1788604640 36.11° C 36% 1018.1 hPa - - - -
1788603438 36.11° C 33% 1018.2 hPa - - - -
1788602237 35.56° C 34% 1018.1 hPa - - - -
1788601036 35° C 33% 1018.2 hPa - - - -
1788599835 35.56° C 31% 1018.2 hPa - - - -
1788598633 34.44° C 40% 1018.4 hPa - - - -
1788597432 35° C 37% 1018.3 hPa - - - -
1788596231 33.33° C 41% 1018.3 hPa - - - -
1788595029 34.44° C 36% 1018.2 hPa - - - -
1788593828 33.89° C 39% 1018.1 hPa - - - -
1788592627 32.78° C 46% 1018.1 hPa - - - -
1788591426 32.78° C 50% 1018 hPa - - - -
1788590224 32.78° C 51% 1018 hPa - - - -
1788589023 32.22° C 52% 1018.2 hPa - - - -
1788587822 30.56° C 53% 1018.2 hPa - - - -
1788586620 28.89° C 55% 1018.1 hPa - - - -
1788585419 27.78° C 56% 1018 hPa - - - -
1788584218 27.78° C 53% 1017.9 hPa - - - -

* Rain since midnight (hover to see other rain measurements)
** Current wind speed in m/s (hover to see current wind gust speed)